Flight Track Log - Related Links

Times and Time Zones

All times are in EDT time to prevent confusion due to time zone crossing. See the N26141 flight status page for this flight to view local times or setup timezone preferences in your user account.


Time Position Orientation Groundspeed Altitude Reporting Facility
EDT Latitude Longitude Course Direction KTS MPH feet Rate Location/Type
Thu 07:23:13 AM 36.1500 -86.7000 253° West 190 219 1,300  Level Nashville TRACON
Thu 07:24:25 AM 36.1500 -86.7833 270° West 211 243 3,500 2,000 Climbing Nashville TRACON
Thu 07:25:25 AM 36.1333 -86.8667 256° West 280 322 5,700 2,409 Climbing Nashville TRACON
Thu 07:26:00 AM 36.0969 -87.1761 248° West  Level FlightAware Approximate
Thu 07:26:32 AM 36.1231 -86.9806 264° West 284 327 8,600  Level Memphis Center
Thu 07:27:00 AM 36.0696 -87.2992 258° West  Level FlightAware Approximate
Thu 07:27:32 AM 36.1133 -87.0864 264° West 284 327 11,200  Level Memphis Center
Thu 07:28:00 AM 36.0523 -87.4243 253° West  Level FlightAware Approximate
Thu 07:28:32 AM 36.1017 -87.1947 262° West 312 359 12,900  Level Memphis Center
Thu 07:29:32 AM 36.0814 -87.3111 258° West 336 387 14,200 1,350 Climbing Memphis Center
Thu 07:30:32 AM 36.0575 -87.4353 257° West 362 417 15,600 1,600 Climbing Memphis Center
Thu 07:31:32 AM 36.0311 -87.5619 256° West 379 436 17,400 1,450 Climbing Memphis Center
Thu 07:32:32 AM 36.0047 -87.6911 256° West 379 436 18,500 1,550 Climbing Memphis Center
Thu 07:33:32 AM 35.9783 -87.8175 256° West 379 436 20,500 1,600 Climbing Memphis Center
Thu 07:34:32 AM 35.9575 -87.9258 257° West 369 425 21,700 1,100 Climbing Memphis Center
Thu 07:35:32 AM 35.9306 -88.0525 255° West 369 425 22,700 1,050 Climbing Memphis Center
Thu 07:36:32 AM 35.8997 -88.1917 255° West 375 432 23,800 1,050 Climbing Memphis Center
Thu 07:37:32 AM 35.8667 -88.3181 252° West 382 440 24,800 1,000 Climbing Memphis Center
Thu 07:38:32 AM 35.8269 -88.4522 250° West 402 463 25,800 900 Climbing Memphis Center
Thu 07:39:32 AM 35.7933 -88.5681 250° West 407 468 26,600 900 Climbing Memphis Center
Thu 07:40:32 AM 35.7533 -88.7019 250° West 407 468 27,600 1,000 Climbing Memphis Center
Thu 07:41:32 AM 35.7156 -88.8383 251° West 412 474 28,600 1,000 Climbing Memphis Center
Thu 07:42:32 AM 35.6794 -88.9692 251° West 412 474 29,600 1,100 Climbing Memphis Center
Thu 07:43:32 AM 35.6392 -89.1053 250° West 412 474 30,800 1,250 Climbing Memphis Center
Thu 07:44:32 AM 35.6008 -89.2361 250° West 412 474 32,100 1,300 Climbing Memphis Center
Thu 07:45:32 AM 35.5622 -89.3642 250° West 412 474 33,400 950 Climbing Memphis Center
Thu 07:46:32 AM 35.5236 -89.4947 250° West 412 474 34,000 300 Climbing Memphis Center
Thu 07:47:32 AM 35.4828 -89.6303 250° West 412 474 34,000  Level Memphis Center
Thu 07:48:32 AM 35.4419 -89.7708 250° West 433 498 34,000  Level Memphis Center
Thu 07:49:32 AM 35.4008 -89.9114 250° West 438 504 34,000  Level Memphis Center
Thu 07:50:32 AM 35.3511 -90.0464 246° West 438 504 34,000  Level Memphis Center
Thu 07:51:32 AM 35.2700 -90.1511 227° Southwest 433 498 34,000  Level Memphis Center
Thu 07:52:32 AM 35.1889 -90.2556 226° Southwest 433 498 34,000  Level Memphis Center
Thu 07:53:32 AM 35.0992 -90.3672 226° Southwest 423 487 34,000  Level Memphis Center
Thu 07:54:32 AM 35.0136 -90.4736 226° Southwest 423 487 34,000  Level Memphis Center
Thu 07:55:32 AM 34.9278 -90.5775 225° Southwest 428 493 34,000  Level Memphis Center
Thu 07:56:32 AM 34.8442 -90.6811 225° Southwest 428 493 34,000  Level Memphis Center
Thu 07:57:32 AM 34.7583 -90.7894 226° Southwest 436 502 34,000  Level Memphis Center
Thu 07:58:32 AM 34.6725 -90.8900 224° Southwest 430 495 34,000  Level Memphis Center
Thu 07:59:32 AM 34.5864 -90.9978 226° Southwest 435 501 34,000  Level Memphis Center
Thu 08:00:32 AM 34.5022 -91.1006 225° Southwest 435 501 34,000  Level Memphis Center
Thu 08:01:32 AM 34.4161 -91.2081 226° Southwest 440 506 34,000  Level Memphis Center
Thu 08:02:32 AM 34.3297 -91.3128 225° Southwest 435 501 34,000  Level Memphis Center
Thu 08:03:32 AM 34.2433 -91.4125 224° Southwest 430 495 34,000  Level Memphis Center
Thu 08:04:32 AM 34.1550 -91.5167 224° Southwest 435 501 34,000  Level Memphis Center
Thu 08:05:32 AM 34.0789 -91.6086 225° Southwest 429 494 34,000  Level Memphis Center
Thu 08:06:32 AM 33.9942 -91.7275 229° Southwest 434 499 34,000  Level Memphis Center
Thu 08:07:32 AM 33.8992 -91.8261 221° Southwest 434 499 34,000  Level Memphis Center
Thu 08:09:03 AM 33.7819 -91.9683 225° Southwest 428 493 34,000  Level Fort Worth Center
Thu 08:10:03 AM 33.6944 -92.0711 224° Southwest 435 501 34,000  Level Fort Worth Center
Thu 08:11:03 AM 33.6069 -92.1739 224° Southwest 435 501 34,000  Level Fort Worth Center
Thu 08:12:03 AM 33.5217 -92.2786 226° Southwest 440 506 34,000  Level Fort Worth Center
Thu 08:13:03 AM 33.4319 -92.3808 224° Southwest 440 506 34,000  Level Fort Worth Center
Thu 08:14:03 AM 33.3211 -92.4319 201° Southwest 432 497 34,000  Level Fort Worth Center
Thu 08:15:03 AM 33.1969 -92.4536 188° South 437 503 34,000  Level Fort Worth Center
Thu 08:16:03 AM 33.0725 -92.4781 189° South 444 511 34,000  Level Fort Worth Center
Thu 08:17:03 AM 32.9503 -92.4972 187° South 451 519 34,000  Level Fort Worth Center
Thu 08:18:03 AM 32.8217 -92.5214 189° South 457 526 34,000  Level Fort Worth Center
Thu 08:19:03 AM 32.6953 -92.5433 188° South 462 532 34,000  Level Fort Worth Center
Thu 08:20:49 AM 32.4586 -92.5872 189° South 467 537 34,000  Level Houston Center
Thu 08:21:50 AM 32.3292 -92.6083 188° South 469 540 34,000  Level Houston Center
Thu 08:22:52 AM 32.2025 -92.6339 190° South 463 533 34,000  Level Houston Center
Thu 08:23:53 AM 32.0728 -92.6569 189° South 468 539 34,000 -49 Level Houston Center
Thu 08:24:55 AM 31.9497 -92.7006 197° South 471 542 33,900  Descending Houston Center
Thu 08:25:56 AM 31.8494 -92.7944 219° Southwest 462 532 34,000 49 Climbing Houston Center
Thu 08:26:58 AM 31.7514 -92.8906 220° Southwest 460 529 34,000  Level Houston Center
Thu 08:27:59 AM 31.6317 -93.0064 219° Southwest 463 533 34,000  Level Houston Center
Thu 08:29:01 AM 31.5322 -93.1019 219° Southwest 463 533 34,000  Level Houston Center
Thu 08:30:02 AM 31.4317 -93.1969 219° Southwest 464 534 34,000  Level Houston Center
Thu 08:31:04 AM 31.3353 -93.2897 219° Southwest 465 535 34,000  Level Houston Center
Thu 08:32:05 AM 31.2336 -93.3881 220° Southwest 462 532 34,000  Level Houston Center
Thu 08:33:07 AM 31.1339 -93.4831 219° Southwest 463 533 34,000  Level Houston Center
Thu 08:34:08 AM 31.0344 -93.5775 219° Southwest 463 533 34,000 -98 Level Houston Center
Thu 08:35:10 AM 30.9164 -93.6903 219° Southwest 461 531 33,800 -976 Descending Houston Center
Thu 08:36:11 AM 30.8153 -93.7850 219° Southwest 465 535 32,000 -2,439 Descending Houston Center
Thu 08:37:13 AM 30.7153 -93.8797 219° Southwest 468 539 28,800 -3,145 Descending Houston Center
Thu 08:38:15 AM 30.6178 -93.9714 219° Southwest 459 528 25,500 -3,220 Descending Houston Center
Thu 08:39:16 AM 30.5231 -94.0594 219° Southwest 447 514 22,200 -3,529 Descending Houston Center
Thu 08:39:40 AM 30.4733 -94.1075 220° Southwest 430 495 20,500 -3,097 Descending Houston Center
Thu 08:40:18 AM 30.4311 -94.1458 218° Southwest 435 501 19,000 -2,909 Descending Houston Center
Thu 08:41:19 AM 30.3419 -94.2292 219° Southwest 422 486 15,700 -3,383 Descending Houston Center
Thu 08:42:31 AM 30.2439 -94.3586 229° Southwest 378 435 11,500 -2,341 Descending Houston Center
Thu 08:43:22 AM 30.2058 -94.4408 242° Southwest 367 422 10,900 -732 Descending Houston Center
Thu 08:44:34 AM 30.1578 -94.5511 243° Southwest 290 334 10,000 -1,024 Descending Houston Center
Thu 08:45:25 AM 30.1289 -94.6186 244° Southwest 291 335 8,800 -1,455 Descending Houston Center
Thu 08:45:40 AM 30.1161 -94.6411 237° Southwest 274 315 8,400 -774 Descending Houston Center
Thu 08:46:27 AM 30.0942 -94.6947 245° Southwest 273 314 8,000 -387 Descending Houston Center
Thu 08:46:42 AM 30.0836 -94.7178 242° Southwest 272 313 8,000 -492 Level Houston Center
Thu 08:47:28 AM 30.0597 -94.7719 243° Southwest 271 312 7,500 -885 Descending Houston Center
Thu 08:47:43 AM 30.0492 -94.7969 244° Southwest 270 311 7,100 -484 Descending Houston Center
Thu 08:48:30 AM 30.0275 -94.8478 244° Southwest 266 306 7,000 -167 Descending Houston Center
Thu 08:49:31 AM 29.9925 -94.9214 241° Southwest 263 303 6,800 -537 Descending Houston Center
Thu 08:50:33 AM 29.9947 -94.9903 272° West 213 245 5,900 -976 Descending Houston Center
Thu 08:51:34 AM 29.9933 -95.0492 268° West 188 216 4,800 -1,122 Descending Houston Center
Thu 08:52:36 AM 29.9942 -95.1161 271° West 176 203 3,600 -1,065 Descending Houston Center
Thu 08:53:38 AM 29.9933 -95.1728 269° West 176 203 2,600 -968 Descending Houston Center

Login

Don't have an account? Register now (free) for customized features, flight alerts, and more!